This is the latest recevied weather packets stored in our database for station/object AB8KN-2. If no packets are shown the sender has not sent any weather packets the latest 10 day(s).
| Time | Temp. | Humidity | Pressure | Rain* | Wind** | Luminosity | Snow |
|---|---|---|---|---|---|---|---|
| 1777167616 | 12.22° C | 82% | 1014.1 hPa | 0 mm | - | 0 W/m² | - |
| 1777162817 | 14.44° C | 82% | 1012.9 hPa | 0 mm | - | 2 W/m² | - |
| 1777158618 | 20.56° C | 68% | 1011.5 hPa | 0 mm | - | 93 W/m² | - |
| 1777149618 | 22.22° C | 59% | 1011.4 hPa | 0 mm | - | 644 W/m² | - |
| 1777144816 | 20° C | 68% | 1011.1 hPa | 0 mm | - | 161 W/m² | - |
| 1777143616 | 20° C | 70% | 1011.1 hPa | 0 mm | - | 246 W/m² | - |
| 1777142417 | 19.44° C | 70% | 1011.4 hPa | 0 mm | - | 380 W/m² | - |
| 1777140017 | 20.56° C | 68% | 1011.8 hPa | 0 mm | - | 707 W/m² | - |
| 1777137018 | 19.44° C | 73% | 1011.4 hPa | 0 mm | - | 386 W/m² | - |
| 1777135815 | 19.44° C | 73% | 1011.7 hPa | 0 mm | - | 466 W/m² | - |
| 1777133436 | 18.33° C | 77% | 1011.3 hPa | 0 mm | - | 263 W/m² | - |
| 1777129817 | 18.33° C | 78% | 1011 hPa | 0 mm | - | 234 W/m² | - |
| 1777126838 | 17.22° C | 84% | 1011 hPa | 0 mm | - | 312 W/m² | - |
| 1777124416 | 16.67° C | 87% | 1010.5 hPa | 0 mm | - | 123 W/m² | - |
| 1777110017 | 15.56° C | 97% | 1008.1 hPa | 0 mm | - | 0 W/m² | - |
| 1777099837 | 16.11° C | 97% | 1007.4 hPa | 0 mm | - | 0 W/m² | - |
| 1777096217 | 16.11° C | 96% | 1008.1 hPa | 0.51 mm | - | 0 W/m² | - |
| 1777094418 | 16.11° C | 95% | 1008.1 hPa | 1.02 mm | - | 0 W/m² | - |
| 1777092616 | 16.67° C | 94% | 1008 hPa | 3.05 mm | - | 0 W/m² | - |
| 1777092016 | 16.67° C | 92% | 1008 hPa | 3.05 mm | - | 0 W/m² | - |
| 1777091416 | 16.67° C | 91% | 1008 hPa | 3.05 mm | - | 0 W/m² | - |
| 1777081815 | 21.67° C | 68% | 1007.9 hPa | 0 mm | - | 0 W/m² | - |
| 1777080036 | 22.78° C | 63% | 1006.9 hPa | 0.25 mm | - | 0 W/m² | - |
| 1777076417 | 25° C | 46% | 1006.3 hPa | 0 mm | - | 1 W/m² | - |
| 1777074018 | 26.11° C | 44% | 1006.1 hPa | 0 mm | - | 42 W/m² | - |
* Rain latest hour (hover to see other rain measurements)
** Current wind speed in m/s (hover to see current wind gust speed)